Aspen — V7QE9 — position and weather

sailwx.info

Track history (hours):
 
Tides and Currents Weather Stations Pressure Air Temp Water Temp Dewpoint Dewpoint Depression Visibility Wind Speed Wind Dir Waves Ship Positions

Aspen

Last reported at 2017-Oct-22 02:50 UTC. Time now 2017-Oct-22 12:16 UTC.
Position N 36°20' E 014°50'.

Length 190 m; draft 10.8 m.

Type: Cargo ship. MMSI: 538006689.

Date/timePositionNaut miles runAvg speedWind from/ knotsBaromVisibWave heightAir tempDewpointWater temp
2017-Oct-22 02:50N 36°20' E 014°50'613.7
2017-Oct-22 02:22N 36°20' E 014°42'513.8
2017-Oct-22 01:58N 36°21' E 014°36'613.7
2017-Oct-22 01:30N 36°23' E 014°28'713.4
2017-Oct-22 01:00N 36°25' E 014°20'713.5
2017-Oct-22 00:30N 36°27' E 014°12'713.4
2017-Oct-22 00:00N 36°29' E 014°04'713.3
2017-Oct-21 23:27N 36°31' E 013°56'613.3
2017-Oct-21 22:58N 36°33' E 013°48'613.4
2017-Oct-21 22:30N 36°35' E 013°41'713.4
2017-Oct-21 22:00N 36°37' E 013°33'713.4
2017-Oct-21 21:30N 36°39' E 013°25'713.2
2017-Oct-21 21:00N 36°41' E 013°17'713.0
2017-Oct-21 20:30N 36°43' E 013°09'  
2017-Oct-19 00:53N 35°60' W 005°07'616.1
2017-Oct-19 00:31N 35°59' W 005°15'815.8
2017-Oct-19 00:01N 35°58' W 005°24'814.2
2017-Oct-18 23:29N 35°56' W 005°33'811.9
2017-Oct-18 22:47N 35°54' W 005°43'24211.1
2017-Oct-18 00:59N 38°07' W 009°56'612.9
2017-Oct-18 00:29N 38°13' W 009°58'712.6
2017-Oct-17 23:58N 38°20' W 010°00'612.5
2017-Oct-17 23:30N 38°25' W 010°02'612.2
2017-Oct-17 23:00N 38°31' W 010°03'712.0
2017-Oct-17 22:23N 38°39' W 010°06'512.3
2017-Oct-17 21:59N 38°43' W 010°07'612.6
2017-Oct-17 21:30N 38°49' W 010°07'612.1
2017-Oct-17 21:00N 38°56' W 010°07'612.2
2017-Oct-17 20:30N 39°02' W 010°07'406 9.5
2017-Oct-16 01:34N 45°10' W 006°18'112.2
2017-Oct-16 01:30N 45°11' W 006°18'612.0
2017-Oct-16 01:00N 45°17' W 006°17'1211.8
2017-Oct-15 23:59N 45°29' W 006°17'1112.0
2017-Oct-15 23:04N 45°40' W 006°17'112.0
2017-Oct-15 23:00N 45°41' W 006°17'612.3
2017-Oct-15 22:30N 45°47' W 006°17'612.6
2017-Oct-15 22:00N 45°53' W 006°17'612.5
2017-Oct-15 21:30N 45°60' W 006°16'713.1
2017-Oct-15 21:00N 46°06' W 006°16'713.1
2017-Oct-15 20:30N 46°13' W 006°15'612.8
2017-Oct-15 20:00N 46°19' W 006°15'712.8
2017-Oct-15 19:26N 46°26' W 006°14'3412.7
2017-Oct-15 16:45N 46°59' W 006°26'312.6
2017-Oct-15 16:30N 47°02' W 006°27'612.5
2017-Oct-15 16:00N 47°09' W 006°29'1011.4
2017-Oct-15 15:07N 47°17' W 006°21'212.1
2017-Oct-15 14:59N 47°18' W 006°19'2512.2
2017-Oct-15 12:55N 47°43' W 006°14'612.1
2017-Oct-15 12:27N 47°49' W 006°14'2311.5
2017-Oct-15 10:29N 48°12' W 006°11'511.4
2017-Oct-15 10:00N 48°17' W 006°10'611.4
2017-Oct-15 09:30N 48°23' W 006°08'4511.6
2017-Oct-15 05:39N 49°00' W 005°32'211.0
2017-Oct-15 05:27N 49°01' W 005°29'510.9
2017-Oct-15 04:58N 49°04' W 005°22'610.7
2017-Oct-15 04:24N 49°07' W 005°14'410.4
2017-Oct-15 04:00N 49°10' W 005°09'510.7
2017-Oct-15 03:30N 49°12' W 005°02'611.1
2017-Oct-15 03:00N 49°15' W 004°54'610.9
2017-Oct-15 02:25N 49°18' W 004°46'610.7
2017-Oct-15 01:53N 49°21' W 004°38'410.8
2017-Oct-15 01:29N 49°23' W 004°32'1210.6
2017-Oct-15 00:23N 49°29' W 004°17'510.7
2017-Oct-14 23:54N 49°31' W 004°10'411.3
2017-Oct-14 23:30N 49°34' W 004°04'612.0
2017-Oct-14 23:00N 49°37' W 003°56'612.4
2017-Oct-14 22:30N 49°40' W 003°48'713.0
2017-Oct-14 22:00N 49°43' W 003°39'713.5
2017-Oct-14 21:27N 49°47' W 003°29'614.0
2017-Oct-14 21:00N 49°50' W 003°21'714.1
2017-Oct-14 20:30N 49°53' W 003°11'714.1
2017-Oct-14 20:00N 49°57' W 003°02'714.0
2017-Oct-14 19:30N 49°60' W 002°52'713.8
2017-Oct-14 19:00N 50°02' W 002°42'713.4
2017-Oct-14 18:30N 50°03' W 002°32'812.7
2017-Oct-14 17:52N 50°06' W 002°20'512.2
2017-Oct-14 17:30N 50°07' W 002°13'611.8
2017-Oct-14 16:58N 50°08' W 002°03'611.3
2017-Oct-14 16:26N 50°10' W 001°54'511.0
2017-Oct-14 16:00N 50°11' W 001°47'810.7
2017-Oct-14 15:14N 50°13' W 001°35'210.6
2017-Oct-14 15:00N 50°14' W 001°31'610.7
2017-Oct-14 14:29N 50°15' W 001°22'511.0
2017-Oct-14 14:00N 50°17' W 001°14'611.5
2017-Oct-14 13:30N 50°18' W 001°06'812.3
2017-Oct-14 12:52N 50°21' W 000°54'1813.1
2017-Oct-14 11:32N 50°25' W 000°28'013.4
2017-Oct-14 11:30N 50°26' W 000°27'713.6
2017-Oct-14 11:00N 50°27' W 000°17'713.6
2017-Oct-14 10:30N 50°29' W 000°06'713.6
2017-Oct-14 10:00N 50°31' E 000°04'713.6
2017-Oct-14 09:30N 50°32' E 000°14'713.6
2017-Oct-14 09:00N 50°34' E 000°25'713.3
2017-Oct-14 08:30N 50°36' E 000°35'713.1
2017-Oct-14 08:00N 50°40' E 000°43'612.8
2017-Oct-14 07:30N 50°44' E 000°51'612.2
2017-Oct-14 07:00N 50°47' E 000°59'912.0
2017-Oct-14 06:14N 50°53' E 001°10'312.0
2017-Oct-14 05:59N 50°56' E 001°13'611.6
2017-Oct-14 05:30N 50°60' E 001°19'612.1
2017-Oct-14 05:00N 51°04' E 001°26'713.1
2017-Oct-14 04:31N 51°08' E 001°35'713.4
2017-Oct-14 04:00N 51°12' E 001°43'713.7
2017-Oct-14 03:30N 51°18' E 001°49'713.9
2017-Oct-14 03:00N 51°24' E 001°55'713.7
2017-Oct-14 02:30N 51°29' E 002°02'713.7
2017-Oct-14 01:58N 51°34' E 002°10'613.5
2017-Oct-14 01:30N 51°39' E 002°16'813.3
2017-Oct-14 00:56N 51°45' E 002°25'512.7
2017-Oct-14 00:30N 51°48' E 002°31'612.3
2017-Oct-14 00:00N 51°53' E 002°37'612.0
2017-Oct-13 23:29N 51°58' E 002°44'611.4
2017-Oct-13 23:00N 52°01' E 002°51'711.3
2017-Oct-13 22:21N 52°03' E 003°03'411.0
2017-Oct-13 21:59N 52°04' E 003°09'610.8
2017-Oct-13 21:27N 52°06' E 003°18'610.5
2017-Oct-13 20:54N 52°07' E 003°27'5 9.9
2017-Oct-13 20:22N 52°09' E 003°35'4 8.7
2017-Oct-13 19:57N 52°10' E 003°41'1 0.5
2017-Oct-13 18:55N 52°10' E 003°42'0 0.0
2017-Oct-13 18:16N 52°10' E 003°42'0 0.0
2017-Oct-13 17:40N 52°10' E 003°42'0 0.0
2017-Oct-13 16:28N 52°10' E 003°42'0 0.1
2017-Oct-13 14:54N 52°09' E 003°42'0 0.0
2017-Oct-13 14:03N 52°10' E 003°42'0 0.0
2017-Oct-13 14:00N 52°10' E 003°42'0 0.1
2017-Oct-13 11:39N 52°10' E 003°42'0 0.0
2017-Oct-13 11:15N 52°10' E 003°42'0 0.0
2017-Oct-13 11:00N 52°10' E 003°42'0 0.0
2017-Oct-13 10:30N 52°10' E 003°42'0 0.0
2017-Oct-13 10:00N 52°10' E 003°42'0 0.3
2017-Oct-13 09:30N 52°10' E 003°42'0 0.2
2017-Oct-13 08:33N 52°09' E 003°42'0 0.0
2017-Oct-13 08:30N 52°09' E 003°42'0 0.0
2017-Oct-13 07:51N 52°09' E 003°42'0 0.1
2017-Oct-13 06:45N 52°09' E 003°42'0 0.6
2017-Oct-13 06:29N 52°09' E 003°41'1 2.8
2017-Oct-13 06:00N 52°08' E 003°42'510.0
2017-Oct-13 05:31N 52°05' E 003°48'3 6.5
2017-Oct-13 05:01N 52°02' E 003°52'3 5.4
2017-Oct-13 04:30N 52°02' E 003°56'611.1
2017-Oct-13 04:01N 51°59' E 004°04'611.1
2017-Oct-13 03:31N 51°56' E 004°12'5 9.4
2017-Oct-13 03:01N 51°54' E 004°18'1 2.2
2017-Oct-13 02:30N 51°53' E 004°17'0 0.3
2017-Oct-13 01:57N 51°53' E 004°17'0 0.0
2017-Oct-13 01:30N 51°53' E 004°17'0 0.0
2017-Oct-13 01:00N 51°53' E 004°17'0 0.0
2017-Oct-13 00:30N 51°53' E 004°17'0 0.0
2017-Oct-13 00:00N 51°53' E 004°17'0 0.0
2017-Oct-12 23:30N 51°53' E 004°17'0 0.0
2017-Oct-12 23:00N 51°53' E 004°17'0 0.0
2017-Oct-12 22:30N 51°53' E 004°16'0 0.0
2017-Oct-12 21:57N 51°53' E 004°17'0 0.0
2017-Oct-12 21:30N 51°53' E 004°17'0 0.0
2017-Oct-12 21:00N 51°53' E 004°17'0 0.0
2017-Oct-12 20:30N 51°53' E 004°17'0 0.0
2017-Oct-12 20:00N 51°53' E 004°17'0 0.0
2017-Oct-12 19:27N 51°53' E 004°16'0 0.0
2017-Oct-12 19:00N 51°53' E 004°17'0 0.0
2017-Oct-12 18:30N 51°53' E 004°17'0 0.0
2017-Oct-12 17:57N 51°53' E 004°17'0 0.0
2017-Oct-12 17:27N 51°53' E 004°17'0 0.0
2017-Oct-12 17:00N 51°53' E 004°17'0 0.0
2017-Oct-12 16:30N 51°53' E 004°17'0 0.0
2017-Oct-12 16:00N 51°53' E 004°17'0 0.0
2017-Oct-12 15:30N 51°53' E 004°17'0 0.0
2017-Oct-12 15:00N 51°53' E 004°17'0 0.0
2017-Oct-12 14:30N 51°53' E 004°16'0 0.0
2017-Oct-12 13:57N 51°53' E 004°17'0 0.0
2017-Oct-12 13:30N 51°53' E 004°17'0 0.0
2017-Oct-12 13:00N 51°53' E 004°17'0 0.0
2017-Oct-12 12:30N 51°53' E 004°16'0 0.0
2017-Oct-12 12:00N 51°53' E 004°17'0 0.0
2017-Oct-12 11:30N 51°53' E 004°17'0 0.0
2017-Oct-12 11:00N 51°53' E 004°17'0 0.0
2017-Oct-12 10:30N 51°53' E 004°17'0 0.0
2017-Oct-12 10:00N 51°53' E 004°17'0 0.0
2017-Oct-12 09:30N 51°53' E 004°17'0 0.0
2017-Oct-12 08:57N 51°53' E 004°17'0 0.0
2017-Oct-12 08:30N 51°53' E 004°17'0 0.0
2017-Oct-12 08:00N 51°53' E 004°17'0 0.0
2017-Oct-12 07:30N 51°53' E 004°17'0 0.0
2017-Oct-12 07:00N 51°53' E 004°17'0 0.0
2017-Oct-12 06:30N 51°53' E 004°17'0 0.0
2017-Oct-12 06:00N 51°53' E 004°16'0 0.0
2017-Oct-12 05:30N 51°53' E 004°16'0 0.0
2017-Oct-12 05:00N 51°53' E 004°16'0 0.0
2017-Oct-12 04:30N 51°53' E 004°17'0 0.0
2017-Oct-12 04:00N 51°53' E 004°17'0 0.0
2017-Oct-12 03:30N 51°53' E 004°16'0 0.0
2017-Oct-12 03:00N 51°53' E 004°16'  
Track history (hours):
 
Tides and Currents Weather Stations Pressure Air Temp Water Temp Dewpoint Dewpoint Depression Visibility Wind Speed Wind Dir Waves Ship Positions

Aspen

Last reported at 2017-Oct-22 02:50 UTC. Time now 2017-Oct-22 12:16 UTC.
Position N 36°20' E 014°50'.

Length 190 m; draft 10.8 m.

Type: Cargo ship. MMSI: 538006689.

Date/timePositionNaut miles runAvg speedWind from/ knotsBaromVisibWave heightAir tempDewpointWater temp
2017-Oct-22 02:50N 36°20' E 014°50'613.7
2017-Oct-22 02:22N 36°20' E 014°42'513.8
2017-Oct-22 01:58N 36°21' E 014°36'613.7
2017-Oct-22 01:30N 36°23' E 014°28'713.4
2017-Oct-22 01:00N 36°25' E 014°20'713.5
2017-Oct-22 00:30N 36°27' E 014°12'713.4
2017-Oct-22 00:00N 36°29' E 014°04'713.3
2017-Oct-21 23:27N 36°31' E 013°56'613.3
2017-Oct-21 22:58N 36°33' E 013°48'613.4
2017-Oct-21 22:30N 36°35' E 013°41'713.4
2017-Oct-21 22:00N 36°37' E 013°33'713.4
2017-Oct-21 21:30N 36°39' E 013°25'713.2
2017-Oct-21 21:00N 36°41' E 013°17'713.0
2017-Oct-21 20:30N 36°43' E 013°09'  
2017-Oct-19 00:53N 35°60' W 005°07'616.1
2017-Oct-19 00:31N 35°59' W 005°15'815.8
2017-Oct-19 00:01N 35°58' W 005°24'814.2
2017-Oct-18 23:29N 35°56' W 005°33'811.9
2017-Oct-18 22:47N 35°54' W 005°43'24211.1
2017-Oct-18 00:59N 38°07' W 009°56'612.9
2017-Oct-18 00:29N 38°13' W 009°58'712.6
2017-Oct-17 23:58N 38°20' W 010°00'612.5
2017-Oct-17 23:30N 38°25' W 010°02'612.2
2017-Oct-17 23:00N 38°31' W 010°03'712.0
2017-Oct-17 22:23N 38°39' W 010°06'512.3
2017-Oct-17 21:59N 38°43' W 010°07'612.6
2017-Oct-17 21:30N 38°49' W 010°07'612.1
2017-Oct-17 21:00N 38°56' W 010°07'612.2
2017-Oct-17 20:30N 39°02' W 010°07'406 9.5
2017-Oct-16 01:34N 45°10' W 006°18'112.2
2017-Oct-16 01:30N 45°11' W 006°18'612.0
2017-Oct-16 01:00N 45°17' W 006°17'1211.8
2017-Oct-15 23:59N 45°29' W 006°17'1112.0
2017-Oct-15 23:04N 45°40' W 006°17'112.0
2017-Oct-15 23:00N 45°41' W 006°17'612.3
2017-Oct-15 22:30N 45°47' W 006°17'612.6
2017-Oct-15 22:00N 45°53' W 006°17'612.5
2017-Oct-15 21:30N 45°60' W 006°16'713.1
2017-Oct-15 21:00N 46°06' W 006°16'713.1
2017-Oct-15 20:30N 46°13' W 006°15'612.8
2017-Oct-15 20:00N 46°19' W 006°15'712.8
2017-Oct-15 19:26N 46°26' W 006°14'3412.7
2017-Oct-15 16:45N 46°59' W 006°26'312.6
2017-Oct-15 16:30N 47°02' W 006°27'612.5
2017-Oct-15 16:00N 47°09' W 006°29'1011.4
2017-Oct-15 15:07N 47°17' W 006°21'212.1
2017-Oct-15 14:59N 47°18' W 006°19'2512.2
2017-Oct-15 12:55N 47°43' W 006°14'612.1
2017-Oct-15 12:27N 47°49' W 006°14'2311.5
2017-Oct-15 10:29N 48°12' W 006°11'511.4
2017-Oct-15 10:00N 48°17' W 006°10'611.4
2017-Oct-15 09:30N 48°23' W 006°08'4511.6
2017-Oct-15 05:39N 49°00' W 005°32'211.0
2017-Oct-15 05:27N 49°01' W 005°29'510.9
2017-Oct-15 04:58N 49°04' W 005°22'610.7
2017-Oct-15 04:24N 49°07' W 005°14'410.4
2017-Oct-15 04:00N 49°10' W 005°09'510.7
2017-Oct-15 03:30N 49°12' W 005°02'611.1
2017-Oct-15 03:00N 49°15' W 004°54'610.9
2017-Oct-15 02:25N 49°18' W 004°46'610.7
2017-Oct-15 01:53N 49°21' W 004°38'410.8
2017-Oct-15 01:29N 49°23' W 004°32'1210.6
2017-Oct-15 00:23N 49°29' W 004°17'510.7
2017-Oct-14 23:54N 49°31' W 004°10'411.3
2017-Oct-14 23:30N 49°34' W 004°04'612.0
2017-Oct-14 23:00N 49°37' W 003°56'612.4
2017-Oct-14 22:30N 49°40' W 003°48'713.0
2017-Oct-14 22:00N 49°43' W 003°39'713.5
2017-Oct-14 21:27N 49°47' W 003°29'614.0
2017-Oct-14 21:00N 49°50' W 003°21'714.1
2017-Oct-14 20:30N 49°53' W 003°11'714.1
2017-Oct-14 20:00N 49°57' W 003°02'714.0
2017-Oct-14 19:30N 49°60' W 002°52'713.8
2017-Oct-14 19:00N 50°02' W 002°42'713.4
2017-Oct-14 18:30N 50°03' W 002°32'812.7
2017-Oct-14 17:52N 50°06' W 002°20'512.2
2017-Oct-14 17:30N 50°07' W 002°13'611.8
2017-Oct-14 16:58N 50°08' W 002°03'611.3
2017-Oct-14 16:26N 50°10' W 001°54'511.0
2017-Oct-14 16:00N 50°11' W 001°47'810.7
2017-Oct-14 15:14N 50°13' W 001°35'210.6
2017-Oct-14 15:00N 50°14' W 001°31'610.7
2017-Oct-14 14:29N 50°15' W 001°22'511.0
2017-Oct-14 14:00N 50°17' W 001°14'611.5
2017-Oct-14 13:30N 50°18' W 001°06'812.3
2017-Oct-14 12:52N 50°21' W 000°54'1813.1
2017-Oct-14 11:32N 50°25' W 000°28'013.4
2017-Oct-14 11:30N 50°26' W 000°27'713.6
2017-Oct-14 11:00N 50°27' W 000°17'713.6
2017-Oct-14 10:30N 50°29' W 000°06'713.6
2017-Oct-14 10:00N 50°31' E 000°04'713.6
2017-Oct-14 09:30N 50°32' E 000°14'713.6
2017-Oct-14 09:00N 50°34' E 000°25'713.3
2017-Oct-14 08:30N 50°36' E 000°35'713.1
2017-Oct-14 08:00N 50°40' E 000°43'612.8
2017-Oct-14 07:30N 50°44' E 000°51'612.2
2017-Oct-14 07:00N 50°47' E 000°59'912.0
2017-Oct-14 06:14N 50°53' E 001°10'312.0
2017-Oct-14 05:59N 50°56' E 001°13'611.6
2017-Oct-14 05:30N 50°60' E 001°19'612.1
2017-Oct-14 05:00N 51°04' E 001°26'713.1
2017-Oct-14 04:31N 51°08' E 001°35'713.4
2017-Oct-14 04:00N 51°12' E 001°43'713.7
2017-Oct-14 03:30N 51°18' E 001°49'713.9
2017-Oct-14 03:00N 51°24' E 001°55'713.7
2017-Oct-14 02:30N 51°29' E 002°02'713.7
2017-Oct-14 01:58N 51°34' E 002°10'613.5
2017-Oct-14 01:30N 51°39' E 002°16'813.3
2017-Oct-14 00:56N 51°45' E 002°25'512.7
2017-Oct-14 00:30N 51°48' E 002°31'612.3
2017-Oct-14 00:00N 51°53' E 002°37'612.0
2017-Oct-13 23:29N 51°58' E 002°44'611.4
2017-Oct-13 23:00N 52°01' E 002°51'711.3
2017-Oct-13 22:21N 52°03' E 003°03'411.0
2017-Oct-13 21:59N 52°04' E 003°09'610.8
2017-Oct-13 21:27N 52°06' E 003°18'610.5
2017-Oct-13 20:54N 52°07' E 003°27'5 9.9
2017-Oct-13 20:22N 52°09' E 003°35'4 8.7
2017-Oct-13 19:57N 52°10' E 003°41'1 0.5
2017-Oct-13 18:55N 52°10' E 003°42'0 0.0
2017-Oct-13 18:16N 52°10' E 003°42'0 0.0
2017-Oct-13 17:40N 52°10' E 003°42'0 0.0
2017-Oct-13 16:28N 52°10' E 003°42'0 0.1
2017-Oct-13 14:54N 52°09' E 003°42'0 0.0
2017-Oct-13 14:03N 52°10' E 003°42'0 0.0
2017-Oct-13 14:00N 52°10' E 003°42'0 0.1
2017-Oct-13 11:39N 52°10' E 003°42'0 0.0
2017-Oct-13 11:15N 52°10' E 003°42'0 0.0
2017-Oct-13 11:00N 52°10' E 003°42'0 0.0
2017-Oct-13 10:30N 52°10' E 003°42'0 0.0
2017-Oct-13 10:00N 52°10' E 003°42'0 0.3
2017-Oct-13 09:30N 52°10' E 003°42'0 0.2
2017-Oct-13 08:33N 52°09' E 003°42'0 0.0
2017-Oct-13 08:30N 52°09' E 003°42'0 0.0
2017-Oct-13 07:51N 52°09' E 003°42'0 0.1
2017-Oct-13 06:45N 52°09' E 003°42'0 0.6
2017-Oct-13 06:29N 52°09' E 003°41'1 2.8
2017-Oct-13 06:00N 52°08' E 003°42'510.0
2017-Oct-13 05:31N 52°05' E 003°48'3 6.5
2017-Oct-13 05:01N 52°02' E 003°52'3 5.4
2017-Oct-13 04:30N 52°02' E 003°56'611.1
2017-Oct-13 04:01N 51°59' E 004°04'611.1
2017-Oct-13 03:31N 51°56' E 004°12'5 9.4
2017-Oct-13 03:01N 51°54' E 004°18'1 2.2
2017-Oct-13 02:30N 51°53' E 004°17'0 0.3
2017-Oct-13 01:57N 51°53' E 004°17'0 0.0
2017-Oct-13 01:30N 51°53' E 004°17'0 0.0
2017-Oct-13 01:00N 51°53' E 004°17'0 0.0
2017-Oct-13 00:30N 51°53' E 004°17'0 0.0
2017-Oct-13 00:00N 51°53' E 004°17'0 0.0
2017-Oct-12 23:30N 51°53' E 004°17'0 0.0
2017-Oct-12 23:00N 51°53' E 004°17'0 0.0
2017-Oct-12 22:30N 51°53' E 004°16'0 0.0
2017-Oct-12 21:57N 51°53' E 004°17'0 0.0
2017-Oct-12 21:30N 51°53' E 004°17'0 0.0
2017-Oct-12 21:00N 51°53' E 004°17'0 0.0
2017-Oct-12 20:30N 51°53' E 004°17'0 0.0
2017-Oct-12 20:00N 51°53' E 004°17'0 0.0
2017-Oct-12 19:27N 51°53' E 004°16'0 0.0
2017-Oct-12 19:00N 51°53' E 004°17'0 0.0
2017-Oct-12 18:30N 51°53' E 004°17'0 0.0
2017-Oct-12 17:57N 51°53' E 004°17'0 0.0
2017-Oct-12 17:27N 51°53' E 004°17'0 0.0
2017-Oct-12 17:00N 51°53' E 004°17'0 0.0
2017-Oct-12 16:30N 51°53' E 004°17'0 0.0
2017-Oct-12 16:00N 51°53' E 004°17'0 0.0
2017-Oct-12 15:30N 51°53' E 004°17'0 0.0
2017-Oct-12 15:00N 51°53' E 004°17'0 0.0
2017-Oct-12 14:30N 51°53' E 004°16'0 0.0
2017-Oct-12 13:57N 51°53' E 004°17'0 0.0
2017-Oct-12 13:30N 51°53' E 004°17'0 0.0
2017-Oct-12 13:00N 51°53' E 004°17'0 0.0
2017-Oct-12 12:30N 51°53' E 004°16'0 0.0
2017-Oct-12 12:00N 51°53' E 004°17'0 0.0
2017-Oct-12 11:30N 51°53' E 004°17'0 0.0
2017-Oct-12 11:00N 51°53' E 004°17'0 0.0
2017-Oct-12 10:30N 51°53' E 004°17'0 0.0
2017-Oct-12 10:00N 51°53' E 004°17'0 0.0
2017-Oct-12 09:30N 51°53' E 004°17'0 0.0
2017-Oct-12 08:57N 51°53' E 004°17'0 0.0
2017-Oct-12 08:30N 51°53' E 004°17'0 0.0
2017-Oct-12 08:00N 51°53' E 004°17'0 0.0
2017-Oct-12 07:30N 51°53' E 004°17'0 0.0
2017-Oct-12 07:00N 51°53' E 004°17'0 0.0
2017-Oct-12 06:30N 51°53' E 004°17'0 0.0
2017-Oct-12 06:00N 51°53' E 004°16'0 0.0
2017-Oct-12 05:30N 51°53' E 004°16'0 0.0
2017-Oct-12 05:00N 51°53' E 004°16'0 0.0
2017-Oct-12 04:30N 51°53' E 004°17'0 0.0
2017-Oct-12 04:00N 51°53' E 004°17'0 0.0
2017-Oct-12 03:30N 51°53' E 004°16'0 0.0
2017-Oct-12 03:00N 51°53' E 004°16'  

Dump ship's entire track history